sensor_id;sensor_type;location;lat;lon;timestamp;P1;durP1;ratioP1;P2;durP2;ratioP2
83272;SDS011;73177;51.584;5.188;2024-01-15T00:01:56;11.50;;;3.20;;
83272;SDS011;73177;51.584;5.188;2024-01-15T00:04:21;3.58;;;2.55;;
83272;SDS011;73177;51.584;5.188;2024-01-15T00:06:46;3.50;;;2.50;;
83272;SDS011;73177;51.584;5.188;2024-01-15T00:09:11;4.97;;;2.50;;
83272;SDS011;73177;51.584;5.188;2024-01-15T00:11:36;7.97;;;3.00;;
83272;SDS011;73177;51.584;5.188;2024-01-15T00:14:02;10.90;;;2.77;;
83272;SDS011;73177;51.584;5.188;2024-01-15T00:16:28;5.72;;;2.83;;
83272;SDS011;73177;51.584;5.188;2024-01-15T00:18:53;6.50;;;2.20;;
83272;SDS011;73177;51.584;5.188;2024-01-15T00:21:18;4.37;;;2.40;;
83272;SDS011;73177;51.584;5.188;2024-01-15T00:23:43;6.13;;;2.87;;
83272;SDS011;73177;51.584;5.188;2024-01-15T00:26:11;7.68;;;2.85;;
83272;SDS011;73177;51.584;5.188;2024-01-15T00:28:37;6.95;;;3.28;;
83272;SDS011;73177;51.584;5.188;2024-01-15T00:31:03;5.93;;;2.63;;
83272;SDS011;73177;51.584;5.188;2024-01-15T00:33:28;6.82;;;2.97;;
83272;SDS011;73177;51.584;5.188;2024-01-15T00:35:54;13.73;;;2.83;;
83272;SDS011;73177;51.584;5.188;2024-01-15T00:38:19;3.77;;;2.60;;
83272;SDS011;73177;51.584;5.188;2024-01-15T00:40:45;5.55;;;2.42;;
83272;SDS011;73177;51.584;5.188;2024-01-15T00:43:10;6.70;;;1.97;;
83272;SDS011;73177;51.584;5.188;2024-01-15T00:45:35;6.57;;;2.13;;
83272;SDS011;73177;51.584;5.188;2024-01-15T00:48:00;8.63;;;3.57;;
83272;SDS011;73177;51.584;5.188;2024-01-15T00:50:26;6.55;;;2.08;;
83272;SDS011;73177;51.584;5.188;2024-01-15T00:52:51;3.90;;;1.40;;
83272;SDS011;73177;51.584;5.188;2024-01-15T00:55:16;6.90;;;2.00;;
83272;SDS011;73177;51.584;5.188;2024-01-15T00:57:41;5.20;;;2.00;;
83272;SDS011;73177;51.584;5.188;2024-01-15T01:00:07;11.17;;;1.83;;
83272;SDS011;73177;51.584;5.188;2024-01-15T01:02:32;4.80;;;1.58;;
83272;SDS011;73177;51.584;5.188;2024-01-15T01:04:57;4.90;;;1.73;;
83272;SDS011;73177;51.584;5.188;2024-01-15T01:07:22;6.70;;;1.93;;
83272;SDS011;73177;51.584;5.188;2024-01-15T01:09:47;5.97;;;2.07;;
83272;SDS011;73177;51.584;5.188;2024-01-15T01:12:13;5.43;;;1.73;;
83272;SDS011;73177;51.584;5.188;2024-01-15T01:14:38;7.63;;;1.87;;
83272;SDS011;73177;51.584;5.188;2024-01-15T01:17:03;8.27;;;1.93;;
83272;SDS011;73177;51.584;5.188;2024-01-15T01:19:28;2.43;;;1.43;;
83272;SDS011;73177;51.584;5.188;2024-01-15T01:21:55;4.40;;;1.83;;
83272;SDS011;73177;51.584;5.188;2024-01-15T01:24:20;7.87;;;2.13;;
83272;SDS011;73177;51.584;5.188;2024-01-15T01:26:45;5.57;;;2.13;;
83272;SDS011;73177;51.584;5.188;2024-01-15T01:29:11;8.23;;;2.45;;
83272;SDS011;73177;51.584;5.188;2024-01-15T01:31:41;5.10;;;2.00;;
83272;SDS011;73177;51.584;5.188;2024-01-15T01:34:07;4.85;;;2.10;;
83272;SDS011;73177;51.584;5.188;2024-01-15T01:36:32;7.33;;;1.97;;
83272;SDS011;73177;51.584;5.188;2024-01-15T01:38:57;3.95;;;1.60;;
83272;SDS011;73177;51.584;5.188;2024-01-15T01:41:22;4.00;;;2.13;;
83272;SDS011;73177;51.584;5.188;2024-01-15T01:43:49;8.13;;;2.00;;
83272;SDS011;73177;51.584;5.188;2024-01-15T01:46:14;15.93;;;1.80;;
83272;SDS011;73177;51.584;5.188;2024-01-15T01:48:40;7.47;;;1.88;;
83272;SDS011;73177;51.584;5.188;2024-01-15T01:51:05;7.07;;;2.75;;
83272;SDS011;73177;51.584;5.188;2024-01-15T01:53:31;9.43;;;2.40;;
83272;SDS011;73177;51.584;5.188;2024-01-15T01:55:57;5.63;;;2.05;;
83272;SDS011;73177;51.584;5.188;2024-01-15T01:58:22;6.20;;;1.83;;
83272;SDS011;73177;51.584;5.188;2024-01-15T02:00:47;5.30;;;2.00;;
83272;SDS011;73177;51.584;5.188;2024-01-15T02:03:13;8.82;;;2.58;;
83272;SDS011;73177;51.584;5.188;2024-01-15T02:05:39;5.43;;;1.80;;
83272;SDS011;73177;51.584;5.188;2024-01-15T02:08:04;3.33;;;1.67;;
83272;SDS011;73177;51.584;5.188;2024-01-15T02:10:29;4.70;;;1.53;;
83272;SDS011;73177;51.584;5.188;2024-01-15T02:12:55;7.57;;;1.60;;
83272;SDS011;73177;51.584;5.188;2024-01-15T02:15:20;5.33;;;1.93;;
83272;SDS011;73177;51.584;5.188;2024-01-15T02:18:01;6.57;;;2.47;;
83272;SDS011;73177;51.584;5.188;2024-01-15T02:20:27;15.45;;;2.20;;
83272;SDS011;73177;51.584;5.188;2024-01-15T02:22:52;8.27;;;1.90;;
83272;SDS011;73177;51.584;5.188;2024-01-15T02:25:18;11.23;;;1.90;;
83272;SDS011;73177;51.584;5.188;2024-01-15T02:27:43;7.32;;;1.80;;
83272;SDS011;73177;51.584;5.188;2024-01-15T02:30:09;6.07;;;1.87;;
83272;SDS011;73177;51.584;5.188;2024-01-15T02:32:35;2.67;;;1.52;;
83272;SDS011;73177;51.584;5.188;2024-01-15T02:35:00;3.07;;;1.60;;
83272;SDS011;73177;51.584;5.188;2024-01-15T02:37:25;12.07;;;2.47;;
83272;SDS011;73177;51.584;5.188;2024-01-15T02:39:50;11.20;;;1.53;;
83272;SDS011;73177;51.584;5.188;2024-01-15T02:42:15;5.30;;;1.40;;
83272;SDS011;73177;51.584;5.188;2024-01-15T02:44:41;3.33;;;1.20;;
83272;SDS011;73177;51.584;5.188;2024-01-15T02:47:06;9.17;;;1.43;;
83272;SDS011;73177;51.584;5.188;2024-01-15T02:49:31;4.90;;;1.30;;
83272;SDS011;73177;51.584;5.188;2024-01-15T02:51:57;10.57;;;1.75;;
83272;SDS011;73177;51.584;5.188;2024-01-15T02:54:22;8.23;;;1.70;;
83272;SDS011;73177;51.584;5.188;2024-01-15T02:56:47;9.40;;;1.70;;
83272;SDS011;73177;51.584;5.188;2024-01-15T02:59:12;5.63;;;1.70;;
83272;SDS011;73177;51.584;5.188;2024-01-15T03:01:38;4.17;;;1.70;;
83272;SDS011;73177;51.584;5.188;2024-01-15T03:04:03;9.63;;;1.30;;
83272;SDS011;73177;51.584;5.188;2024-01-15T03:06:28;3.37;;;1.80;;
83272;SDS011;73177;51.584;5.188;2024-01-15T03:08:53;14.50;;;1.90;;
83272;SDS011;73177;51.584;5.188;2024-01-15T03:11:18;6.83;;;1.70;;
83272;SDS011;73177;51.584;5.188;2024-01-15T03:13:44;3.07;;;0.87;;
83272;SDS011;73177;51.584;5.188;2024-01-15T03:16:09;11.00;;;2.10;;
83272;SDS011;73177;51.584;5.188;2024-01-15T03:18:35;7.50;;;1.80;;
83272;SDS011;73177;51.584;5.188;2024-01-15T03:21:00;11.80;;;1.70;;
83272;SDS011;73177;51.584;5.188;2024-01-15T03:23:26;6.55;;;2.00;;
83272;SDS011;73177;51.584;5.188;2024-01-15T03:25:51;4.50;;;1.73;;
83272;SDS011;73177;51.584;5.188;2024-01-15T03:28:17;6.07;;;1.30;;
83272;SDS011;73177;51.584;5.188;2024-01-15T03:30:42;7.28;;;1.75;;
83272;SDS011;73177;51.584;5.188;2024-01-15T03:33:07;5.63;;;1.70;;
83272;SDS011;73177;51.584;5.188;2024-01-15T03:35:32;19.00;;;1.67;;
83272;SDS011;73177;51.584;5.188;2024-01-15T03:37:57;14.77;;;2.57;;
83272;SDS011;73177;51.584;5.188;2024-01-15T03:40:23;7.03;;;1.70;;
83272;SDS011;73177;51.584;5.188;2024-01-15T03:42:48;6.60;;;1.50;;
83272;SDS011;73177;51.584;5.188;2024-01-15T03:45:13;8.63;;;2.07;;
83272;SDS011;73177;51.584;5.188;2024-01-15T03:47:38;8.07;;;1.97;;
83272;SDS011;73177;51.584;5.188;2024-01-15T03:50:03;12.07;;;2.10;;
83272;SDS011;73177;51.584;5.188;2024-01-15T03:52:29;3.97;;;1.67;;
83272;SDS011;73177;51.584;5.188;2024-01-15T03:54:54;13.57;;;2.50;;
83272;SDS011;73177;51.584;5.188;2024-01-15T03:57:20;7.88;;;1.40;;
83272;SDS011;73177;51.584;5.188;2024-01-15T03:59:45;14.67;;;1.90;;
83272;SDS011;73177;51.584;5.188;2024-01-15T04:02:12;11.82;;;2.10;;
83272;SDS011;73177;51.584;5.188;2024-01-15T04:04:40;4.23;;;1.57;;
83272;SDS011;73177;51.584;5.188;2024-01-15T04:07:05;6.85;;;2.15;;
83272;SDS011;73177;51.584;5.188;2024-01-15T04:09:30;8.17;;;2.20;;
83272;SDS011;73177;51.584;5.188;2024-01-15T04:11:56;4.63;;;2.30;;
83272;SDS011;73177;51.584;5.188;2024-01-15T04:14:21;6.40;;;1.87;;
83272;SDS011;73177;51.584;5.188;2024-01-15T04:16:46;6.68;;;1.58;;
83272;SDS011;73177;51.584;5.188;2024-01-15T04:19:11;6.70;;;1.40;;
83272;SDS011;73177;51.584;5.188;2024-01-15T04:21:36;5.20;;;1.23;;
83272;SDS011;73177;51.584;5.188;2024-01-15T04:24:02;2.97;;;1.37;;
83272;SDS011;73177;51.584;5.188;2024-01-15T04:26:27;2.90;;;1.60;;
83272;SDS011;73177;51.584;5.188;2024-01-15T04:28:52;4.30;;;1.37;;
83272;SDS011;73177;51.584;5.188;2024-01-15T04:31:21;15.70;;;2.07;;
83272;SDS011;73177;51.584;5.188;2024-01-15T04:33:46;3.90;;;1.38;;
83272;SDS011;73177;51.584;5.188;2024-01-15T04:36:11;1.67;;;1.40;;
83272;SDS011;73177;51.584;5.188;2024-01-15T04:38:37;1.80;;;1.07;;
83272;SDS011;73177;51.584;5.188;2024-01-15T04:41:02;1.10;;;0.97;;
83272;SDS011;73177;51.584;5.188;2024-01-15T04:43:27;1.77;;;1.13;;
83272;SDS011;73177;51.584;5.188;2024-01-15T04:45:52;1.43;;;0.80;;
83272;SDS011;73177;51.584;5.188;2024-01-15T04:48:17;1.57;;;1.00;;
83272;SDS011;73177;51.584;5.188;2024-01-15T04:50:42;1.67;;;1.10;;
83272;SDS011;73177;51.584;5.188;2024-01-15T04:53:08;1.27;;;1.13;;
83272;SDS011;73177;51.584;5.188;2024-01-15T04:55:33;1.67;;;1.00;;
83272;SDS011;73177;51.584;5.188;2024-01-15T04:57:58;1.90;;;0.80;;
83272;SDS011;73177;51.584;5.188;2024-01-15T05:00:23;0.80;;;0.80;;
83272;SDS011;73177;51.584;5.188;2024-01-15T05:02:48;0.87;;;0.60;;
83272;SDS011;73177;51.584;5.188;2024-01-15T05:05:14;1.70;;;1.00;;
83272;SDS011;73177;51.584;5.188;2024-01-15T05:07:39;1.70;;;1.37;;
83272;SDS011;73177;51.584;5.188;2024-01-15T05:10:04;3.87;;;1.53;;
83272;SDS011;73177;51.584;5.188;2024-01-15T05:12:30;2.45;;;1.50;;
83272;SDS011;73177;51.584;5.188;2024-01-15T05:14:55;3.13;;;1.40;;
83272;SDS011;73177;51.584;5.188;2024-01-15T05:17:20;2.57;;;1.70;;
83272;SDS011;73177;51.584;5.188;2024-01-15T05:19:45;8.33;;;2.30;;
83272;SDS011;73177;51.584;5.188;2024-01-15T05:22:10;4.67;;;2.10;;
83272;SDS011;73177;51.584;5.188;2024-01-15T05:24:35;3.17;;;1.90;;
83272;SDS011;73177;51.584;5.188;2024-01-15T05:27:01;6.00;;;2.80;;
83272;SDS011;73177;51.584;5.188;2024-01-15T05:29:26;4.90;;;2.50;;
83272;SDS011;73177;51.584;5.188;2024-01-15T05:31:51;6.80;;;2.38;;
83272;SDS011;73177;51.584;5.188;2024-01-15T05:34:17;5.97;;;2.30;;
83272;SDS011;73177;51.584;5.188;2024-01-15T05:36:42;4.63;;;2.20;;
83272;SDS011;73177;51.584;5.188;2024-01-15T05:39:07;3.23;;;1.50;;
83272;SDS011;73177;51.584;5.188;2024-01-15T05:41:33;10.00;;;2.47;;
83272;SDS011;73177;51.584;5.188;2024-01-15T05:43:58;8.80;;;2.17;;
83272;SDS011;73177;51.584;5.188;2024-01-15T05:46:23;13.07;;;2.77;;
83272;SDS011;73177;51.584;5.188;2024-01-15T05:48:48;7.87;;;2.30;;
83272;SDS011;73177;51.584;5.188;2024-01-15T05:51:14;5.13;;;2.20;;
83272;SDS011;73177;51.584;5.188;2024-01-15T05:53:39;7.15;;;2.00;;
83272;SDS011;73177;51.584;5.188;2024-01-15T05:56:06;5.60;;;2.22;;
83272;SDS011;73177;51.584;5.188;2024-01-15T05:58:31;14.80;;;2.90;;
83272;SDS011;73177;51.584;5.188;2024-01-15T06:00:56;7.77;;;3.20;;
83272;SDS011;73177;51.584;5.188;2024-01-15T06:03:22;7.13;;;2.23;;
83272;SDS011;73177;51.584;5.188;2024-01-15T06:05:47;5.67;;;2.70;;
83272;SDS011;73177;51.584;5.188;2024-01-15T06:08:12;8.80;;;2.47;;
83272;SDS011;73177;51.584;5.188;2024-01-15T06:10:39;10.20;;;3.03;;
83272;SDS011;73177;51.584;5.188;2024-01-15T06:13:04;6.57;;;2.20;;
83272;SDS011;73177;51.584;5.188;2024-01-15T06:15:29;4.47;;;1.80;;
83272;SDS011;73177;51.584;5.188;2024-01-15T06:17:55;15.32;;;4.43;;
83272;SDS011;73177;51.584;5.188;2024-01-15T06:20:20;3.17;;;2.33;;
83272;SDS011;73177;51.584;5.188;2024-01-15T06:22:45;5.93;;;2.20;;
83272;SDS011;73177;51.584;5.188;2024-01-15T06:25:10;5.97;;;1.87;;
83272;SDS011;73177;51.584;5.188;2024-01-15T06:27:36;5.77;;;2.37;;
83272;SDS011;73177;51.584;5.188;2024-01-15T06:30:01;3.43;;;1.67;;
83272;SDS011;73177;51.584;5.188;2024-01-15T06:32:26;3.75;;;2.15;;
83272;SDS011;73177;51.584;5.188;2024-01-15T06:34:52;2.50;;;1.67;;
83272;SDS011;73177;51.584;5.188;2024-01-15T06:37:17;3.57;;;2.23;;
83272;SDS011;73177;51.584;5.188;2024-01-15T06:39:44;8.30;;;2.40;;
83272;SDS011;73177;51.584;5.188;2024-01-15T06:42:09;3.73;;;2.10;;
83272;SDS011;73177;51.584;5.188;2024-01-15T06:44:34;8.43;;;3.17;;
83272;SDS011;73177;51.584;5.188;2024-01-15T06:46:59;4.87;;;2.77;;
83272;SDS011;73177;51.584;5.188;2024-01-15T06:49:27;4.97;;;2.20;;
83272;SDS011;73177;51.584;5.188;2024-01-15T06:51:53;3.83;;;2.35;;
83272;SDS011;73177;51.584;5.188;2024-01-15T06:54:18;4.27;;;2.97;;
83272;SDS011;73177;51.584;5.188;2024-01-15T06:56:43;8.40;;;3.03;;
83272;SDS011;73177;51.584;5.188;2024-01-15T06:59:08;8.50;;;3.57;;
83272;SDS011;73177;51.584;5.188;2024-01-15T07:01:33;8.97;;;2.90;;
83272;SDS011;73177;51.584;5.188;2024-01-15T07:03:59;6.50;;;3.37;;
83272;SDS011;73177;51.584;5.188;2024-01-15T07:06:24;9.13;;;4.00;;
83272;SDS011;73177;51.584;5.188;2024-01-15T07:08:49;7.90;;;3.40;;
83272;SDS011;73177;51.584;5.188;2024-01-15T07:11:15;7.55;;;3.58;;
83272;SDS011;73177;51.584;5.188;2024-01-15T07:13:40;7.80;;;3.77;;
83272;SDS011;73177;51.584;5.188;2024-01-15T07:16:05;9.63;;;4.03;;
83272;SDS011;73177;51.584;5.188;2024-01-15T07:18:30;5.70;;;3.73;;
83272;SDS011;73177;51.584;5.188;2024-01-15T07:20:55;9.57;;;4.93;;
83272;SDS011;73177;51.584;5.188;2024-01-15T07:23:21;7.87;;;3.60;;
83272;SDS011;73177;51.584;5.188;2024-01-15T07:25:46;5.63;;;3.27;;
83272;SDS011;73177;51.584;5.188;2024-01-15T07:28:11;11.87;;;4.83;;
83272;SDS011;73177;51.584;5.188;2024-01-15T07:30:36;11.30;;;5.17;;
83272;SDS011;73177;51.584;5.188;2024-01-15T07:33:04;7.20;;;4.65;;
83272;SDS011;73177;51.584;5.188;2024-01-15T07:35:29;10.65;;;5.32;;
83272;SDS011;73177;51.584;5.188;2024-01-15T07:37:54;15.47;;;6.27;;
83272;SDS011;73177;51.584;5.188;2024-01-15T07:40:19;9.63;;;4.77;;
83272;SDS011;73177;51.584;5.188;2024-01-15T07:42:44;18.03;;;6.57;;
83272;SDS011;73177;51.584;5.188;2024-01-15T07:45:10;13.20;;;8.07;;
83272;SDS011;73177;51.584;5.188;2024-01-15T07:47:35;9.77;;;6.55;;
83272;SDS011;73177;51.584;5.188;2024-01-15T07:50:01;9.77;;;6.53;;
83272;SDS011;73177;51.584;5.188;2024-01-15T07:52:26;14.88;;;7.00;;
83272;SDS011;73177;51.584;5.188;2024-01-15T07:54:51;8.60;;;4.83;;
83272;SDS011;73177;51.584;5.188;2024-01-15T07:57:16;10.57;;;5.70;;
83272;SDS011;73177;51.584;5.188;2024-01-15T07:59:41;7.13;;;4.63;;
83272;SDS011;73177;51.584;5.188;2024-01-15T08:02:06;10.00;;;4.33;;
83272;SDS011;73177;51.584;5.188;2024-01-15T08:04:32;5.50;;;3.83;;
83272;SDS011;73177;51.584;5.188;2024-01-15T08:06:57;11.23;;;4.37;;
83272;SDS011;73177;51.584;5.188;2024-01-15T08:09:22;10.63;;;4.60;;
83272;SDS011;73177;51.584;5.188;2024-01-15T08:11:47;6.43;;;3.10;;
83272;SDS011;73177;51.584;5.188;2024-01-15T08:16:39;4.70;;;3.33;;
83272;SDS011;73177;51.584;5.188;2024-01-15T08:19:05;8.10;;;4.00;;
83272;SDS011;73177;51.584;5.188;2024-01-15T08:21:30;7.00;;;4.20;;
83272;SDS011;73177;51.584;5.188;2024-01-15T08:26:22;5.30;;;3.70;;
83272;SDS011;73177;51.584;5.188;2024-01-15T08:28:47;7.13;;;3.93;;
83272;SDS011;73177;51.584;5.188;2024-01-15T08:31:12;7.65;;;3.45;;
83272;SDS011;73177;51.584;5.188;2024-01-15T08:33:38;5.03;;;3.03;;
83272;SDS011;73177;51.584;5.188;2024-01-15T08:36:03;6.87;;;3.33;;
83272;SDS011;73177;51.584;5.188;2024-01-15T08:38:28;4.50;;;2.70;;
83272;SDS011;73177;51.584;5.188;2024-01-15T08:40:53;3.80;;;2.00;;
83272;SDS011;73177;51.584;5.188;2024-01-15T08:43:21;6.47;;;2.67;;
83272;SDS011;73177;51.584;5.188;2024-01-15T08:45:46;3.37;;;2.20;;
83272;SDS011;73177;51.584;5.188;2024-01-15T08:50:38;4.10;;;1.50;;
83272;SDS011;73177;51.584;5.188;2024-01-15T08:53:03;7.53;;;1.83;;
83272;SDS011;73177;51.584;5.188;2024-01-15T08:55:29;4.25;;;1.38;;
83272;SDS011;73177;51.584;5.188;2024-01-15T08:57:54;5.60;;;1.53;;
83272;SDS011;73177;51.584;5.188;2024-01-15T09:00:19;4.13;;;1.13;;
83272;SDS011;73177;51.584;5.188;2024-01-15T09:02:45;2.97;;;1.60;;
83272;SDS011;73177;51.584;5.188;2024-01-15T09:05:10;3.73;;;1.10;;
83272;SDS011;73177;51.584;5.188;2024-01-15T09:07:35;1.70;;;1.13;;
83272;SDS011;73177;51.584;5.188;2024-01-15T09:10:00;3.70;;;1.30;;
83272;SDS011;73177;51.584;5.188;2024-01-15T09:12:26;3.53;;;1.17;;
83272;SDS011;73177;51.584;5.188;2024-01-15T09:14:51;7.45;;;1.30;;
83272;SDS011;73177;51.584;5.188;2024-01-15T09:17:18;5.38;;;1.88;;
83272;SDS011;73177;51.584;5.188;2024-01-15T09:19:43;2.20;;;1.40;;
83272;SDS011;73177;51.584;5.188;2024-01-15T09:22:09;2.75;;;1.38;;
83272;SDS011;73177;51.584;5.188;2024-01-15T09:24:34;3.20;;;1.45;;
83272;SDS011;73177;51.584;5.188;2024-01-15T09:26:59;2.83;;;1.80;;
83272;SDS011;73177;51.584;5.188;2024-01-15T09:29:25;4.60;;;1.50;;
83272;SDS011;73177;51.584;5.188;2024-01-15T09:31:50;5.07;;;1.55;;
83272;SDS011;73177;51.584;5.188;2024-01-15T09:34:15;2.60;;;1.97;;
83272;SDS011;73177;51.584;5.188;2024-01-15T09:36:41;4.57;;;1.60;;
83272;SDS011;73177;51.584;5.188;2024-01-15T09:39:07;3.67;;;1.25;;
83272;SDS011;73177;51.584;5.188;2024-01-15T09:41:36;7.15;;;1.80;;
83272;SDS011;73177;51.584;5.188;2024-01-15T09:44:02;3.83;;;1.92;;
83272;SDS011;73177;51.584;5.188;2024-01-15T09:46:28;1.77;;;1.67;;
83272;SDS011;73177;51.584;5.188;2024-01-15T09:48:53;4.10;;;1.87;;
83272;SDS011;73177;51.584;5.188;2024-01-15T09:51:18;4.80;;;1.53;;
83272;SDS011;73177;51.584;5.188;2024-01-15T09:53:44;5.53;;;1.90;;
83272;SDS011;73177;51.584;5.188;2024-01-15T09:56:10;7.43;;;2.33;;
83272;SDS011;73177;51.584;5.188;2024-01-15T09:58:35;3.93;;;1.63;;
83272;SDS011;73177;51.584;5.188;2024-01-15T10:01:01;5.60;;;1.67;;
83272;SDS011;73177;51.584;5.188;2024-01-15T10:03:28;6.90;;;2.35;;
83272;SDS011;73177;51.584;5.188;2024-01-15T10:05:53;10.10;;;2.30;;
83272;SDS011;73177;51.584;5.188;2024-01-15T10:08:19;2.10;;;1.90;;
83272;SDS011;73177;51.584;5.188;2024-01-15T10:10:44;6.35;;;1.83;;
83272;SDS011;73177;51.584;5.188;2024-01-15T10:13:10;4.83;;;2.03;;
83272;SDS011;73177;51.584;5.188;2024-01-15T10:15:37;6.03;;;2.70;;
83272;SDS011;73177;51.584;5.188;2024-01-15T10:18:03;3.60;;;1.77;;
83272;SDS011;73177;51.584;5.188;2024-01-15T10:20:28;2.90;;;1.88;;
83272;SDS011;73177;51.584;5.188;2024-01-15T10:22:54;3.28;;;1.40;;
83272;SDS011;73177;51.584;5.188;2024-01-15T10:27:58;5.93;;;2.00;;
83272;SDS011;73177;51.584;5.188;2024-01-15T10:30:24;7.30;;;1.75;;
83272;SDS011;73177;51.584;5.188;2024-01-15T10:32:57;3.97;;;2.00;;
83272;SDS011;73177;51.584;5.188;2024-01-15T10:35:22;2.85;;;1.33;;
83272;SDS011;73177;51.584;5.188;2024-01-15T10:37:47;4.23;;;2.17;;
83272;SDS011;73177;51.584;5.188;2024-01-15T10:40:13;11.90;;;1.80;;
83272;SDS011;73177;51.584;5.188;2024-01-15T10:42:38;4.38;;;2.30;;
83272;SDS011;73177;51.584;5.188;2024-01-15T10:45:04;1.83;;;1.47;;
83272;SDS011;73177;51.584;5.188;2024-01-15T10:47:29;5.63;;;1.77;;
83272;SDS011;73177;51.584;5.188;2024-01-15T10:49:54;3.53;;;1.70;;
83272;SDS011;73177;51.584;5.188;2024-01-15T10:52:20;3.22;;;1.63;;
83272;SDS011;73177;51.584;5.188;2024-01-15T10:54:46;4.03;;;1.38;;
83272;SDS011;73177;51.584;5.188;2024-01-15T10:57:12;3.20;;;1.70;;
83272;SDS011;73177;51.584;5.188;2024-01-15T10:59:38;4.47;;;1.60;;
83272;SDS011;73177;51.584;5.188;2024-01-15T11:02:04;5.88;;;1.42;;
83272;SDS011;73177;51.584;5.188;2024-01-15T11:04:29;2.90;;;2.00;;
83272;SDS011;73177;51.584;5.188;2024-01-15T11:06:56;5.00;;;1.70;;
83272;SDS011;73177;51.584;5.188;2024-01-15T11:09:22;2.90;;;1.40;;
83272;SDS011;73177;51.584;5.188;2024-01-15T11:11:48;4.72;;;2.42;;
83272;SDS011;73177;51.584;5.188;2024-01-15T11:17:00;5.28;;;1.70;;
83272;SDS011;73177;51.584;5.188;2024-01-15T11:19:26;3.05;;;1.60;;
83272;SDS011;73177;51.584;5.188;2024-01-15T11:21:59;2.53;;;1.35;;
83272;SDS011;73177;51.584;5.188;2024-01-15T11:24:34;5.20;;;2.17;;
83272;SDS011;73177;51.584;5.188;2024-01-15T11:27:03;3.92;;;1.40;;
83272;SDS011;73177;51.584;5.188;2024-01-15T11:31:57;4.97;;;1.70;;
83272;SDS011;73177;51.584;5.188;2024-01-15T11:41:59;3.58;;;2.60;;
83272;SDS011;73177;51.584;5.188;2024-01-15T11:44:25;5.30;;;3.75;;
83272;SDS011;73177;51.584;5.188;2024-01-15T11:46:57;4.38;;;3.70;;
83272;SDS011;73177;51.584;5.188;2024-01-15T11:52:06;9.95;;;3.97;;
83272;SDS011;73177;51.584;5.188;2024-01-15T11:54:33;4.30;;;3.17;;
83272;SDS011;73177;51.584;5.188;2024-01-15T11:57:03;11.30;;;2.30;;
83272;SDS011;73177;51.584;5.188;2024-01-15T11:59:29;3.08;;;2.53;;
83272;SDS011;73177;51.584;5.188;2024-01-15T12:01:54;8.00;;;2.60;;
83272;SDS011;73177;51.584;5.188;2024-01-15T12:04:20;2.90;;;2.27;;
83272;SDS011;73177;51.584;5.188;2024-01-15T12:06:45;7.65;;;3.22;;
83272;SDS011;73177;51.584;5.188;2024-01-15T12:09:11;5.85;;;2.80;;
83272;SDS011;73177;51.584;5.188;2024-01-15T12:11:36;6.93;;;3.70;;
83272;SDS011;73177;51.584;5.188;2024-01-15T12:16:27;8.27;;;3.38;;
83272;SDS011;73177;51.584;5.188;2024-01-15T12:18:53;6.17;;;2.93;;
83272;SDS011;73177;51.584;5.188;2024-01-15T12:21:18;9.73;;;3.17;;
83272;SDS011;73177;51.584;5.188;2024-01-15T12:23:45;5.55;;;2.63;;
83272;SDS011;73177;51.584;5.188;2024-01-15T12:26:11;3.67;;;2.17;;
83272;SDS011;73177;51.584;5.188;2024-01-15T12:28:36;3.43;;;2.00;;
83272;SDS011;73177;51.584;5.188;2024-01-15T12:31:01;2.60;;;1.43;;
83272;SDS011;73177;51.584;5.188;2024-01-15T12:33:30;2.80;;;1.55;;
83272;SDS011;73177;51.584;5.188;2024-01-15T12:35:55;3.30;;;1.50;;
83272;SDS011;73177;51.584;5.188;2024-01-15T12:38:20;1.53;;;1.30;;
83272;SDS011;73177;51.584;5.188;2024-01-15T12:40:45;1.63;;;1.40;;
83272;SDS011;73177;51.584;5.188;2024-01-15T12:43:13;2.15;;;1.50;;
83272;SDS011;73177;51.584;5.188;2024-01-15T12:45:39;1.83;;;1.73;;
83272;SDS011;73177;51.584;5.188;2024-01-15T12:48:05;5.63;;;1.40;;
83272;SDS011;73177;51.584;5.188;2024-01-15T12:50:30;3.53;;;1.98;;
83272;SDS011;73177;51.584;5.188;2024-01-15T12:52:58;2.08;;;1.40;;
83272;SDS011;73177;51.584;5.188;2024-01-15T12:55:24;4.97;;;1.73;;
83272;SDS011;73177;51.584;5.188;2024-01-15T12:57:49;5.30;;;2.00;;
83272;SDS011;73177;51.584;5.188;2024-01-15T13:00:17;5.90;;;2.20;;
83272;SDS011;73177;51.584;5.188;2024-01-15T13:02:42;3.23;;;2.27;;
83272;SDS011;73177;51.584;5.188;2024-01-15T13:05:08;3.77;;;2.50;;
83272;SDS011;73177;51.584;5.188;2024-01-15T13:07:34;5.10;;;2.75;;
83272;SDS011;73177;51.584;5.188;2024-01-15T13:09:59;6.17;;;3.10;;
83272;SDS011;73177;51.584;5.188;2024-01-15T13:12:24;4.87;;;2.93;;
83272;SDS011;73177;51.584;5.188;2024-01-15T13:14:49;5.95;;;2.72;;
83272;SDS011;73177;51.584;5.188;2024-01-15T13:17:15;9.77;;;2.90;;
83272;SDS011;73177;51.584;5.188;2024-01-15T13:19:40;6.03;;;3.23;;
83272;SDS011;73177;51.584;5.188;2024-01-15T13:22:05;4.97;;;3.10;;
83272;SDS011;73177;51.584;5.188;2024-01-15T13:24:33;10.73;;;3.72;;
83272;SDS011;73177;51.584;5.188;2024-01-15T13:26:58;9.80;;;5.10;;
83272;SDS011;73177;51.584;5.188;2024-01-15T13:29:23;10.50;;;4.70;;
83272;SDS011;73177;51.584;5.188;2024-01-15T13:31:48;9.80;;;5.00;;
83272;SDS011;73177;51.584;5.188;2024-01-15T13:34:14;9.43;;;5.57;;
83272;SDS011;73177;51.584;5.188;2024-01-15T13:36:39;10.47;;;5.10;;
83272;SDS011;73177;51.584;5.188;2024-01-15T13:39:04;9.93;;;3.80;;
83272;SDS011;73177;51.584;5.188;2024-01-15T13:41:33;9.50;;;4.13;;
83272;SDS011;73177;51.584;5.188;2024-01-15T13:43:58;13.27;;;4.03;;
83272;SDS011;73177;51.584;5.188;2024-01-15T13:46:24;7.30;;;2.65;;
83272;SDS011;73177;51.584;5.188;2024-01-15T13:48:51;13.20;;;2.88;;
83272;SDS011;73177;51.584;5.188;2024-01-15T13:51:16;7.38;;;2.00;;
83272;SDS011;73177;51.584;5.188;2024-01-15T13:53:42;6.20;;;3.65;;
83272;SDS011;73177;51.584;5.188;2024-01-15T13:56:07;7.43;;;2.20;;
83272;SDS011;73177;51.584;5.188;2024-01-15T13:58:35;10.55;;;2.92;;
83272;SDS011;73177;51.584;5.188;2024-01-15T14:01:00;5.33;;;2.63;;
83272;SDS011;73177;51.584;5.188;2024-01-15T14:03:25;11.38;;;3.00;;
83272;SDS011;73177;51.584;5.188;2024-01-15T14:05:51;5.50;;;2.70;;
83272;SDS011;73177;51.584;5.188;2024-01-15T14:08:16;6.93;;;2.85;;
83272;SDS011;73177;51.584;5.188;2024-01-15T14:10:42;4.10;;;2.17;;
83272;SDS011;73177;51.584;5.188;2024-01-15T14:13:07;7.53;;;2.53;;
83272;SDS011;73177;51.584;5.188;2024-01-15T14:15:32;5.83;;;2.70;;
83272;SDS011;73177;51.584;5.188;2024-01-15T14:17:57;6.73;;;2.60;;
83272;SDS011;73177;51.584;5.188;2024-01-15T14:20:23;6.03;;;2.75;;
83272;SDS011;73177;51.584;5.188;2024-01-15T14:22:49;6.53;;;2.70;;
83272;SDS011;73177;51.584;5.188;2024-01-15T14:25:14;8.17;;;2.23;;
83272;SDS011;73177;51.584;5.188;2024-01-15T14:27:39;7.27;;;2.90;;
83272;SDS011;73177;51.584;5.188;2024-01-15T14:30:04;3.87;;;2.17;;
83272;SDS011;73177;51.584;5.188;2024-01-15T14:32:30;8.02;;;2.45;;
83272;SDS011;73177;51.584;5.188;2024-01-15T14:34:56;7.00;;;2.83;;
83272;SDS011;73177;51.584;5.188;2024-01-15T14:37:21;5.90;;;2.22;;
83272;SDS011;73177;51.584;5.188;2024-01-15T14:39:46;5.83;;;2.40;;
83272;SDS011;73177;51.584;5.188;2024-01-15T14:42:12;7.57;;;2.37;;
83272;SDS011;73177;51.584;5.188;2024-01-15T14:44:37;10.20;;;1.97;;
83272;SDS011;73177;51.584;5.188;2024-01-15T14:47:04;3.67;;;1.52;;
83272;SDS011;73177;51.584;5.188;2024-01-15T14:49:29;5.90;;;2.27;;
83272;SDS011;73177;51.584;5.188;2024-01-15T14:51:55;5.47;;;2.23;;
83272;SDS011;73177;51.584;5.188;2024-01-15T14:54:20;11.77;;;1.83;;
83272;SDS011;73177;51.584;5.188;2024-01-15T14:56:46;6.35;;;1.75;;
83272;SDS011;73177;51.584;5.188;2024-01-15T14:59:11;6.77;;;1.90;;
83272;SDS011;73177;51.584;5.188;2024-01-15T15:01:36;10.53;;;1.50;;
83272;SDS011;73177;51.584;5.188;2024-01-15T15:04:01;5.47;;;1.50;;